FYWH/WDH METAR and TAF weather

Enter ICAO airport designator
Station Type Date Time Source
FYWH METAR 2022/01/26 07:00 UTC NOAA

FYWH 260700Z 12005KT CAVOK 24/12 Q1023 NOSIG


Station Type Date Time Source
FYWH Decoded METAR 2022/01/26 07:00 UTC NOAA

J. G. Strijdom, Namibia (FYWH) 22-29S 017-28E 1700M
Jan 26, 2022 - 02:00 AM EST / 2022.01.26 0700 UTC
Wind: from the ESE (120 degrees) at 6 MPH (5 KT):0
Visibility: greater than 7 mile(s):0
Temperature: 75 F (24 C)
Dew Point: 53 F (12 C)
Relative Humidity: 46%
Pressure (altimeter): 30.21 in. Hg (1023 hPa)
ob: FYWH 260700Z 12005KT CAVOK 24/12 Q1023 NOSIG
cycle: 7

Station Type Date Time Source
FYWH TAF 2022/01/26 06:10 UTC NOAA

TAF FYWH 260400Z 2606/2706 26004KT CAVOK
BECMG 2610/2612 10007KT

Example: see airport list